Terminal Aerodrome Forecast
Issued by NWS

Home | Current Version | Previous Version | Text Only | Print | Product List | Glossary On
Versions: 1 2 3 4 5 6 7 8 9 10 11 12 13 14 15 16 17 18 19 20 21 22 23 24 25 26 27 28 29 30 31 32 33
679
FTUS43 KILX 181128
TAFBMI
TAF
KBMI 181128Z 1812/1912 28013G18KT 6SM BR OVC004
     FM181300 27012KT 4SM BR OVC004
     FM181500 25007KT P6SM BKN008
     FM181900 21009KT P6SM SCT020
     FM190100 18004KT P6SM SCT200
     FM190900 18006KT 4SM BR FEW100=

USA.gov is the U.S. government's official web portal to all federal, state and local government web resources and services.